Time;durP1;ratioP1;P1;durP2;ratioP2;P2;SDS_P1;SDS_P2;PMS_P1;PMS_P2;Temp;Humidity;BMP_temperature;BMP_pressure;BME280_temperature;BME280_humidity;BME280_pressure;Samples;Min_cycle;Max_cycle;Signal;HPM_P1;HPM_P2
2023/03/27 00:00:55;;;;;;;16.30;10.13;;;11.50;99.90;;;;;;4590570;19;20460;-30
2023/03/27 00:02:27;;;;;;;14.83;9.47;;;11.60;99.90;;;;;;4590730;19;20760;-28
2023/03/27 00:03:59;;;;;;;16.43;9.77;;;11.60;99.90;;;;;;4589987;19;20421;-31
2023/03/27 00:05:31;;;;;;;;;;;11.60;99.90;;;;;;4590463;19;20449;-30
2023/03/27 00:07:02;;;;;;;13.53;10.50;;;11.70;99.90;;;;;;4590322;19;20421;-28
2023/03/27 00:08:35;;;;;;;17.37;10.23;;;11.70;99.90;;;;;;4592203;19;20016;-30
2023/03/27 00:10:08;;;;;;;14.23;9.57;;;11.70;99.90;;;;;;4589822;19;20487;-30
2023/03/27 00:11:40;;;;;;;14.70;10.07;;;11.70;99.90;;;;;;4590440;19;20432;-28
2023/03/27 00:13:12;;;;;;;15.32;10.35;;;11.70;99.90;;;;;;4590043;19;20431;-29
2023/03/27 00:14:44;;;;;;;13.97;8.40;;;11.80;99.90;;;;;;4590855;19;20010;-32
2023/03/27 00:16:15;;;;;;;10.85;7.50;;;11.80;99.90;;;;;;4589980;19;21143;-30
2023/03/27 00:17:48;;;;;;;14.30;8.90;;;11.80;99.90;;;;;;4590004;19;20340;-30
2023/03/27 00:19:20;;;;;;;11.80;8.23;;;11.80;99.90;;;;;;4590062;19;20022;-30
2023/03/27 00:20:55;;;;;;;14.80;10.07;;;11.80;99.90;;;;;;4590678;19;21020;-30
2023/03/27 00:22:28;;;;;;;15.23;9.70;;;11.80;99.90;;;;;;4589175;19;21199;-28
2023/03/27 00:24:00;;;;;;;15.00;9.30;;;11.80;99.90;;;;;;4590314;19;20464;-29
2023/03/27 00:25:32;;;;;;;15.50;9.77;;;11.80;99.90;;;;;;4589701;19;20531;-30
2023/03/27 00:27:04;;;;;;;14.10;9.77;;;11.80;99.90;;;;;;4592312;19;20429;-29
2023/03/27 00:28:35;;;;;;;18.98;11.65;;;11.90;99.90;;;;;;4594365;19;20445;-29
2023/03/27 00:30:07;;;;;;;20.35;12.40;;;11.80;99.90;;;;;;4594429;19;20014;-29
2023/03/27 00:31:38;;;;;;;19.03;11.57;;;11.80;99.90;;;;;;4594626;19;20080;-29
2023/03/27 00:33:11;;;;;;;16.63;10.43;;;11.90;99.90;;;;;;4594303;19;20425;-29
2023/03/27 00:34:43;;;;;;;18.35;10.70;;;11.90;99.90;;;;;;4596886;19;20495;-29
2023/03/27 00:36:14;;;;;;;19.35;10.85;;;11.90;99.90;;;;;;4593207;19;20015;-29
2023/03/27 00:37:46;;;;;;;19.27;10.85;;;11.90;99.90;;;;;;4594748;19;20022;-30
2023/03/27 00:39:18;;;;;;;17.40;11.13;;;11.90;99.90;;;;;;4594216;19;20017;-28
2023/03/27 00:40:52;;;;;;;20.38;11.27;;;11.90;99.90;;;;;;4594555;19;20453;-30
2023/03/27 00:42:23;;;;;;;16.53;11.10;;;11.90;99.90;;;;;;4594637;19;20014;-28
2023/03/27 00:43:57;;;;;;;18.15;11.43;;;11.90;99.90;;;;;;4594892;19;20544;-29
2023/03/27 00:45:29;;;;;;;16.77;11.23;;;11.90;99.90;;;;;;4593162;19;20036;-30
2023/03/27 00:47:01;;;;;;;19.17;11.87;;;11.90;99.90;;;;;;4593207;19;20451;-31
2023/03/27 00:48:34;;;;;;;17.25;11.77;;;11.90;99.90;;;;;;4593132;19;20511;-30
2023/03/27 00:50:10;;;;;;;18.50;11.10;;;11.90;99.90;;;;;;4592982;19;20041;-30
2023/03/27 00:51:45;;;;;;;14.80;10.40;;;11.90;99.90;;;;;;4592757;19;20436;-31
2023/03/27 00:53:21;;;;;;;17.30;10.40;;;12.00;99.90;;;;;;4592868;19;20447;-28
2023/03/27 00:54:56;;;;;;;18.93;11.87;;;12.00;99.90;;;;;;4592960;19;20468;-30
2023/03/27 00:56:29;;;;;;;18.13;10.53;;;12.00;99.90;;;;;;4592749;19;20819;-29
2023/03/27 00:58:05;;;;;;;17.60;10.57;;;11.90;99.90;;;;;;4592603;19;20471;-30
2023/03/27 00:59:38;;;;;;;18.97;10.97;;;11.90;99.90;;;;;;4591195;19;20481;-28
2023/03/27 01:01:13;;;;;;;15.97;9.93;;;11.90;99.90;;;;;;4591375;19;20448;-29
2023/03/27 01:02:46;;;;;;;19.37;10.43;;;11.90;99.90;;;;;;4591809;19;20044;-29
2023/03/27 01:04:20;;;;;;;15.37;10.80;;;12.00;99.90;;;;;;4591535;19;20425;-29
2023/03/27 01:05:52;;;;;;;16.50;10.00;;;11.90;99.90;;;;;;4590191;19;20894;-33
2023/03/27 01:07:24;;;;;;;16.93;10.63;;;11.90;99.90;;;;;;4591928;19;20476;-29
2023/03/27 01:08:57;;;;;;;17.43;10.77;;;12.00;99.90;;;;;;4592154;19;20985;-30
2023/03/27 01:10:57;;;;;;;21.40;13.50;;;12.00;99.90;;;;;;4591456;19;20436;-29
2023/03/27 01:12:47;;;;;;;20.03;12.80;;;12.00;99.90;;;;;;4591257;19;20441;-30
2023/03/27 01:14:19;;;;;;;21.37;12.83;;;12.00;99.90;;;;;;4591080;19;20840;-32
2023/03/27 01:16:13;;;;;;;20.67;12.13;;;12.00;99.90;;;;;;4591337;19;20440;-29
2023/03/27 01:17:56;;;;;;;;;;;12.00;99.90;;;;;;4592407;19;20433;-29
2023/03/27 01:19:28;;;;;;;24.47;14.97;;;12.00;99.90;;;;;;4591426;19;19919;-30
2023/03/27 01:21:17;;;;;;;;;;;12.00;99.90;;;;;;4592003;19;20568;-29
2023/03/27 01:23:03;;;;;;;23.53;15.27;;;12.00;99.90;;;;;;4589853;19;19915;-29
2023/03/27 01:24:56;;;;;;;22.17;13.37;;;12.00;99.90;;;;;;4591061;19;20744;-29
2023/03/27 01:27:01;;;;;;;22.13;14.30;;;12.00;99.90;;;;;;4591437;19;20455;-30
2023/03/27 01:28:45;;;;;;;24.57;14.80;;;11.90;99.90;;;;;;4591953;19;20420;-30
2023/03/27 01:30:21;;;;;;;34.73;16.80;;;12.00;99.90;;;;;;4591238;19;20401;-30
2023/03/27 01:32:07;;;;;;;31.97;18.47;;;12.00;99.90;;;;;;4591992;19;20381;-30
2023/03/27 01:33:59;;;;;;;32.43;19.17;;;12.00;99.90;;;;;;4591828;19;20417;-30
2023/03/27 01:36:01;;;;;;;34.50;19.47;;;12.00;99.90;;;;;;4595385;19;20437;-29
2023/03/27 01:37:40;;;;;;;30.13;16.90;;;11.90;99.90;;;;;;4591853;19;20433;-29
2023/03/27 01:39:16;;;;;;;29.00;16.07;;;12.00;99.90;;;;;;4591748;19;20810;-31
2023/03/27 01:41:22;;;;;;;21.93;14.13;;;12.00;99.90;;;;;;4592636;19;20480;-29
2023/03/27 01:42:56;;;;;;;19.40;12.53;;;12.00;99.90;;;;;;4593368;19;20405;-29
2023/03/27 01:44:53;;;;;;;19.90;12.43;;;12.00;99.90;;;;;;4595037;19;20461;-32
2023/03/27 01:46:31;;;;;;;27.53;16.00;;;12.00;99.90;;;;;;4592824;19;20887;-29
2023/03/27 01:48:09;;;;;;;25.23;15.53;;;11.90;99.90;;;;;;4591626;19;20826;-30
2023/03/27 01:49:44;;;;;;;26.97;16.13;;;12.00;99.90;;;;;;4591757;19;20417;-29
2023/03/27 01:51:37;;;;;;;25.47;15.93;;;12.00;99.90;;;;;;4592820;19;20463;-30
2023/03/27 01:53:15;;;;;;;26.50;15.57;;;12.00;99.90;;;;;;4592912;19;20403;-29
2023/03/27 01:54:52;;;;;;;24.00;15.60;;;11.90;99.90;;;;;;4593312;19;20479;-29
2023/03/27 01:56:36;;;;;;;26.17;15.47;;;12.00;99.90;;;;;;4591626;19;20446;-28
2023/03/27 01:58:17;;;;;;;24.33;14.50;;;12.00;99.90;;;;;;4591270;19;20417;-29
2023/03/27 01:59:58;;;;;;;25.20;15.30;;;12.00;99.90;;;;;;4591555;19;20531;-30
2023/03/27 02:01:32;;;;;;;26.15;16.88;;;11.90;99.90;;;;;;4591929;19;20512;-31
2023/03/27 02:03:17;;;;;;;27.23;15.33;;;11.90;99.90;;;;;;4592694;19;20028;-29
2023/03/27 02:04:55;;;;;;;23.00;14.47;;;11.90;99.90;;;;;;4590443;19;21091;-29
2023/03/27 02:06:29;;;;;;;21.73;14.90;;;11.90;99.90;;;;;;4592351;19;20488;-30
2023/03/27 02:08:16;;;;;;;29.37;16.10;;;12.00;99.90;;;;;;4591577;19;20480;-29
2023/03/27 02:09:50;;;;;;;21.13;13.47;;;12.00;99.90;;;;;;4591150;19;20977;-31
2023/03/27 02:11:22;;;;;;;20.70;12.40;;;12.00;99.90;;;;;;4591340;19;20433;-28
2023/03/27 02:13:00;;;;;;;20.17;11.93;;;12.00;99.90;;;;;;4591045;19;20815;-29
2023/03/27 02:14:40;;;;;;;14.97;8.07;;;12.00;99.90;;;;;;4591645;19;20802;-31
2023/03/27 02:16:16;;;;;;;16.67;7.90;;;12.00;99.90;;;;;;4592133;19;20397;-29
2023/03/27 02:17:51;;;;;;;18.90;10.40;;;12.00;99.90;;;;;;4591590;19;20468;-30
2023/03/27 02:19:25;;;;;;;16.40;8.97;;;12.00;99.90;;;;;;4590960;19;20425;-31
2023/03/27 02:20:56;;;;;;;13.80;7.67;;;12.00;99.90;;;;;;4590973;19;20793;-31
2023/03/27 02:22:28;;;;;;;14.60;7.13;;;12.00;99.90;;;;;;4590669;19;20449;-29
2023/03/27 02:24:00;;;;;;;9.90;5.57;;;12.00;99.90;;;;;;4592729;19;20464;-31
2023/03/27 02:25:35;;;;;;;10.33;6.00;;;11.90;99.90;;;;;;4591258;19;20482;-29
2023/03/27 02:27:21;;;;;;;13.17;6.13;;;12.00;99.90;;;;;;4590816;19;20487;-29
2023/03/27 02:28:54;;;;;;;14.90;5.97;;;11.90;99.90;;;;;;4591266;19;20409;-29
2023/03/27 02:30:33;;;;;;;17.87;7.03;;;11.90;99.90;;;;;;4592189;19;20429;-32
2023/03/27 02:32:23;;;;;;;13.53;6.60;;;12.00;99.90;;;;;;4590858;19;20475;-30
2023/03/27 02:34:19;;;;;;;14.13;6.13;;;12.00;99.90;;;;;;4591660;19;20475;-29
2023/03/27 02:36:00;;;;;;;14.23;4.83;;;12.00;99.90;;;;;;4591710;19;20432;-29
2023/03/27 02:37:44;;;;;;;8.13;4.13;;;11.90;99.90;;;;;;4591679;19;20589;-29
2023/03/27 02:39:21;;;;;;;9.60;4.43;;;11.90;99.90;;;;;;4590835;19;20413;-30
2023/03/27 02:40:52;;;;;;;15.57;5.20;;;11.90;99.90;;;;;;4591535;19;20433;-29
2023/03/27 02:42:49;;;;;;;8.18;3.88;;;12.00;99.90;;;;;;4592439;19;20760;-32
2023/03/27 02:44:28;;;;;;;10.07;4.60;;;12.00;99.90;;;;;;4590682;19;20042;-32
2023/03/27 02:46:13;;;;;;;11.10;4.13;;;12.00;99.90;;;;;;4591850;19;20472;-30
2023/03/27 02:47:48;;;;;;;14.40;5.43;;;11.90;99.90;;;;;;4590502;19;20823;-31
2023/03/27 02:49:25;;;;;;;12.87;6.43;;;11.90;99.90;;;;;;4589143;19;21036;-34
2023/03/27 02:51:19;;;;;;;11.53;5.60;;;12.00;99.90;;;;;;4590802;19;20405;-31
2023/03/27 02:52:54;;;;;;;13.57;5.57;;;11.90;99.90;;;;;;4590113;19;20441;-29
2023/03/27 02:54:31;;;;;;;14.83;6.50;;;11.90;99.90;;;;;;4590524;19;20451;-29
2023/03/27 02:56:03;;;;;;;9.67;4.43;;;11.90;99.90;;;;;;4591241;19;20425;-32
2023/03/27 02:57:38;;;;;;;11.07;4.70;;;11.90;99.90;;;;;;4590761;19;20433;-29
2023/03/27 02:59:12;;;;;;;13.80;6.03;;;11.90;99.90;;;;;;4590834;19;20429;-31
2023/03/27 03:00:47;;;;;;;13.60;5.90;;;11.90;99.90;;;;;;4590487;19;21037;-30
2023/03/27 03:02:20;;;;;;;10.10;4.73;;;11.90;99.90;;;;;;4590133;19;21062;-32
2023/03/27 03:04:06;;;;;;;10.23;4.53;;;11.90;99.90;;;;;;4590663;19;20443;-30
2023/03/27 03:05:39;;;;;;;9.40;4.17;;;11.90;99.90;;;;;;4589790;19;21017;-30
2023/03/27 03:07:13;;;;;;;8.67;3.90;;;11.90;99.90;;;;;;4590122;19;20437;-30
2023/03/27 03:08:45;;;;;;;9.50;3.77;;;11.90;99.90;;;;;;4591208;19;20748;-30
2023/03/27 03:10:17;;;;;;;10.77;3.77;;;11.90;99.90;;;;;;4590332;19;20443;-31
2023/03/27 03:11:51;;;;;;;15.07;4.90;;;11.90;99.90;;;;;;4590853;19;20448;-31
2023/03/27 03:13:22;;;;;;;;;;;11.80;99.90;;;;;;4590888;19;20856;-30
2023/03/27 03:14:53;;;;;;;9.93;3.53;;;11.80;99.90;;;;;;4590679;19;20260;-29
2023/03/27 03:16:26;;;;;;;9.13;4.60;;;11.90;99.90;;;;;;4591891;19;21021;-30
2023/03/27 03:17:57;;;;;;;7.40;3.53;;;11.80;99.90;;;;;;4589877;19;20804;-29
2023/03/27 03:19:30;;;;;;;8.20;3.73;;;11.80;99.90;;;;;;4590596;19;20468;-32
2023/03/27 03:21:01;;;;;;;10.10;3.90;;;11.80;99.90;;;;;;4591398;19;20441;-29
2023/03/27 03:22:32;;;;;;;9.60;4.35;;;11.80;99.90;;;;;;4590131;19;20010;-30
2023/03/27 03:24:06;;;;;;;7.00;3.60;;;11.80;99.90;;;;;;4590936;19;20070;-30
2023/03/27 03:25:38;;;;;;;10.07;3.67;;;11.80;99.90;;;;;;4590134;19;20489;-29
2023/03/27 03:27:13;;;;;;;10.33;3.40;;;11.70;99.90;;;;;;4590965;19;20433;-30
2023/03/27 03:28:46;;;;;;;12.03;5.17;;;11.70;99.90;;;;;;4591081;19;20803;-29
2023/03/27 03:30:18;;;;;;;10.07;4.43;;;11.70;99.90;;;;;;4589503;19;20441;-30
2023/03/27 03:31:49;;;;;;;10.70;4.00;;;11.70;99.90;;;;;;4590296;19;20459;-31
2023/03/27 03:33:21;;;;;;;7.17;3.60;;;11.60;99.90;;;;;;4590628;19;20014;-29
2023/03/27 03:34:52;;;;;;;9.50;3.60;;;11.60;99.90;;;;;;4591363;19;20783;-31
2023/03/27 03:36:23;;;;;;;8.57;4.78;;;11.60;99.90;;;;;;4589563;19;20069;-29
2023/03/27 03:37:56;;;;;;;7.60;3.23;;;11.60;99.90;;;;;;4590480;19;20024;-29
2023/03/27 03:39:29;;;;;;;10.17;3.63;;;11.60;99.90;;;;;;4590373;19;20524;-29
2023/03/27 03:41:01;;;;;;;10.40;4.00;;;11.70;99.90;;;;;;4591106;19;20461;-32
2023/03/27 03:42:33;;;;;;;9.50;4.05;;;11.70;99.90;;;;;;4590774;19;20818;-32
2023/03/27 03:44:04;;;;;;;8.80;3.85;;;11.70;99.90;;;;;;4592904;19;20015;-32
2023/03/27 03:45:37;;;;;;;8.00;4.27;;;11.70;99.90;;;;;;4590197;19;20022;-33
2023/03/27 03:47:08;;;;;;;11.98;5.30;;;11.70;99.90;;;;;;4590353;19;20433;-30
2023/03/27 03:48:40;;;;;;;6.07;3.05;;;11.80;99.90;;;;;;4590203;19;20019;-30
2023/03/27 03:50:12;;;;;;;11.97;3.87;;;11.80;99.90;;;;;;4590243;19;20362;-29
2023/03/27 03:51:43;;;;;;;10.82;4.30;;;11.90;99.90;;;;;;4590169;19;20457;-33
2023/03/27 03:53:16;;;;;;;10.82;4.30;;;11.90;99.80;;;;;;4591339;19;20022;-30
2023/03/27 03:54:48;;;;;;;12.00;4.77;;;11.90;99.70;;;;;;4590636;19;20018;-31
2023/03/27 03:56:20;;;;;;;7.43;3.03;;;11.80;99.60;;;;;;4592443;19;20449;-30
2023/03/27 03:57:51;;;;;;;7.63;3.60;;;11.90;99.50;;;;;;4591782;19;20491;-29
2023/03/27 03:59:22;;;;;;;8.55;3.45;;;11.80;99.30;;;;;;4591567;19;20022;-30
2023/03/27 04:00:53;;;;;;;10.25;4.07;;;11.80;99.40;;;;;;4592164;19;20344;-31
2023/03/27 04:02:27;;;;;;;8.37;3.53;;;11.70;99.40;;;;;;4591812;19;20031;-30
2023/03/27 04:04:01;;;;;;;10.73;3.77;;;11.70;99.50;;;;;;4590733;19;20417;-29
2023/03/27 04:05:33;;;;;;;8.40;3.60;;;11.70;99.50;;;;;;4590364;19;20488;-29
2023/03/27 04:07:08;;;;;;;8.50;3.57;;;11.70;99.40;;;;;;4591619;19;20437;-27
2023/03/27 04:08:39;;;;;;;11.37;4.17;;;11.70;99.50;;;;;;4591729;19;20540;-30
2023/03/27 04:10:15;;;;;;;7.97;3.87;;;11.80;99.40;;;;;;4590675;19;20484;-29
2023/03/27 04:11:46;;;;;;;8.47;4.17;;;11.90;99.30;;;;;;4589873;19;20843;-29
2023/03/27 04:13:17;;;;;;;10.32;3.72;;;11.90;99.20;;;;;;4592011;19;20441;-33
2023/03/27 04:14:49;;;;;;;7.57;3.40;;;11.90;99.30;;;;;;4590257;19;20020;-29
2023/03/27 04:16:21;;;;;;;10.80;4.00;;;11.90;99.20;;;;;;4589852;19;20494;-30
2023/03/27 04:17:52;;;;;;;8.52;4.00;;;11.90;99.00;;;;;;4591375;19;20504;-29
2023/03/27 04:19:24;;;;;;;9.00;4.00;;;11.90;98.90;;;;;;4590474;19;20018;-29
2023/03/27 04:20:57;;;;;;;8.63;3.80;;;12.00;99.30;;;;;;4591505;19;20536;-29
2023/03/27 04:22:28;;;;;;;;;;;12.00;99.20;;;;;;4588850;19;20464;-30
2023/03/27 04:24:01;;;;;;;8.93;4.60;;;12.10;98.90;;;;;;4588644;19;19926;-29
2023/03/27 04:25:32;;;;;;;8.87;4.60;;;11.90;98.80;;;;;;4591254;19;20015;-29
2023/03/27 04:27:04;;;;;;;9.07;4.55;;;11.90;98.90;;;;;;4590716;19;20464;-30
2023/03/27 04:28:37;;;;;;;8.80;5.50;;;11.80;99.00;;;;;;4591679;19;20011;-31
2023/03/27 04:30:15;;;;;;;;;;;11.80;99.00;;;;;;4589140;19;20437;-29
2023/03/27 04:31:45;;;;;;;12.70;7.00;;;11.80;99.10;;;;;;4591528;19;20249;-30
2023/03/27 04:33:21;;;;;;;11.25;6.18;;;11.80;99.10;;;;;;4591357;19;20459;-29
2023/03/27 04:34:54;;;;;;;9.60;4.70;;;11.80;99.10;;;;;;4589313;19;20011;-33
2023/03/27 04:36:26;;;;;;;9.10;5.13;;;11.70;99.10;;;;;;4592136;19;21008;-29
2023/03/27 04:38:00;;;;;;;15.70;7.55;;;11.80;99.20;;;;;;4592086;19;20010;-30
2023/03/27 04:39:38;;;;;;;11.80;6.93;;;11.80;99.10;;;;;;4589383;19;20025;-30
2023/03/27 04:41:09;;;;;;;16.57;9.90;;;11.70;99.20;;;;;;4591797;19;21037;-29
2023/03/27 04:42:42;;;;;;;19.13;11.77;;;11.80;99.10;;;;;;4590690;19;20476;-28
2023/03/27 04:44:16;;;;;;;13.97;7.23;;;11.70;99.20;;;;;;4588664;19;20433;-29
2023/03/27 04:45:49;;;;;;;13.00;7.43;;;11.70;99.10;;;;;;4588605;19;20437;-30
2023/03/27 04:47:20;;;;;;;12.85;7.80;;;11.80;99.10;;;;;;4589134;19;20440;-30
2023/03/27 04:48:52;;;;;;;;;;;11.80;99.10;;;;;;4590530;19;20014;-30
2023/03/27 04:50:23;;;;;;;22.73;12.03;;;11.80;99.20;;;;;;4589846;19;19914;-29
2023/03/27 04:51:55;;;;;;;19.13;10.93;;;11.80;99.20;;;;;;4589720;19;20362;-30
2023/03/27 04:53:29;;;;;;;15.87;9.87;;;11.70;99.00;;;;;;4589299;19;20501;-29
2023/03/27 04:55:01;;;;;;;16.67;10.93;;;11.70;99.20;;;;;;4591461;19;20548;-29
2023/03/27 04:56:34;;;;;;;17.53;11.33;;;11.80;99.30;;;;;;4589367;19;20429;-32
2023/03/27 04:58:06;;;;;;;16.90;9.55;;;11.70;99.20;;;;;;4589432;19;20455;-29
2023/03/27 04:59:37;;;;;;;;;;;11.70;99.10;;;;;;4591412;19;20010;-31
2023/03/27 05:01:08;;;;;;;13.30;8.10;;;11.70;99.30;;;;;;4588985;19;20296;-30
2023/03/27 05:02:40;;;;;;;;;;;11.80;99.30;;;;;;4591584;19;20030;-30
2023/03/27 05:04:11;;;;;;;12.85;7.72;;;11.70;99.60;;;;;;4589155;19;19914;-30
2023/03/27 05:05:46;;;;;;;14.47;9.33;;;11.80;99.40;;;;;;4587161;19;20078;-30
2023/03/27 05:07:18;;;;;;;12.87;9.53;;;11.80;99.50;;;;;;4590591;19;21036;-29
2023/03/27 05:08:49;;;;;;;14.43;8.03;;;11.80;99.60;;;;;;4591176;19;20481;-29
2023/03/27 05:10:21;;;;;;;10.30;5.22;;;11.80;99.60;;;;;;4591094;19;20465;-28
2023/03/27 05:11:52;;;;;;;10.55;5.70;;;11.80;99.20;;;;;;4591396;19;20483;-31
2023/03/27 05:13:25;;;;;;;11.60;5.50;;;11.90;99.20;;;;;;4593213;19;20464;-28
2023/03/27 05:14:58;;;;;;;9.73;4.60;;;11.90;99.20;;;;;;4593968;19;20439;-30
2023/03/27 05:16:30;;;;;;;9.47;4.67;;;11.90;99.20;;;;;;4590308;19;20444;-30
2023/03/27 05:18:01;;;;;;;7.60;4.40;;;11.90;99.30;;;;;;4593780;19;20788;-30
2023/03/27 05:19:34;;;;;;;7.13;4.20;;;11.90;99.20;;;;;;4596315;19;20007;-30
2023/03/27 05:21:06;;;;;;;8.17;3.87;;;12.00;99.20;;;;;;4594531;19;20464;-32
2023/03/27 05:22:38;;;;;;;12.18;5.22;;;12.00;99.20;;;;;;4594357;19;20532;-29
2023/03/27 05:24:10;;;;;;;10.30;4.90;;;12.00;99.20;;;;;;4593329;19;20027;-30
2023/03/27 05:25:44;;;;;;;13.68;5.40;;;12.10;99.10;;;;;;4595119;19;20453;-29
2023/03/27 05:27:15;;;;;;;9.17;5.03;;;12.10;99.20;;;;;;4596039;19;20087;-29
2023/03/27 05:28:46;;;;;;;14.95;6.63;;;12.10;99.40;;;;;;4593072;19;20464;-29
2023/03/27 05:30:19;;;;;;;14.82;6.85;;;12.10;99.20;;;;;;4595123;19;20476;-30
2023/03/27 05:31:51;;;;;;;17.53;6.70;;;12.10;99.20;;;;;;4593784;19;20015;-33
2023/03/27 05:33:22;;;;;;;13.32;5.70;;;12.20;99.10;;;;;;4591547;19;20445;-29
2023/03/27 05:34:54;;;;;;;9.32;5.40;;;12.10;99.10;;;;;;4592772;19;20017;-29
2023/03/27 05:36:28;;;;;;;8.10;4.33;;;12.10;99.00;;;;;;4593341;19;20015;-31
2023/03/27 05:38:01;;;;;;;9.60;4.40;;;12.10;99.10;;;;;;4592222;19;20824;-30
2023/03/27 05:39:35;;;;;;;9.88;4.30;;;12.10;99.10;;;;;;4592877;19;21059;-29
2023/03/27 05:41:11;;;;;;;11.33;5.23;;;12.20;99.10;;;;;;4593153;19;20345;-31
2023/03/27 05:42:44;;;;;;;15.13;6.90;;;12.10;99.10;;;;;;4592443;19;20429;-28
2023/03/27 05:44:15;;;;;;;15.23;7.70;;;12.10;99.00;;;;;;4595331;19;20449;-32
2023/03/27 05:45:46;;;;;;;13.80;7.32;;;12.10;98.60;;;;;;4592153;19;21056;-30
2023/03/27 05:47:19;;;;;;;11.57;4.90;;;12.10;98.60;;;;;;4593037;19;20022;-32
2023/03/27 05:48:51;;;;;;;8.10;4.30;;;12.10;98.60;;;;;;4594445;19;20527;-29
2023/03/27 05:50:27;;;;;;;14.73;8.98;;;12.10;98.60;;;;;;4593649;19;20463;-30
2023/03/27 05:52:02;;;;;;;19.33;11.77;;;12.20;98.40;;;;;;4593223;19;20010;-30
2023/03/27 05:53:36;;;;;;;43.50;31.57;;;12.20;98.60;;;;;;4594169;19;21194;-29
2023/03/27 05:55:09;;;;;;;24.07;18.70;;;12.20;98.60;;;;;;4592064;19;20481;-30
2023/03/27 05:56:40;;;;;;;9.88;6.45;;;12.20;98.70;;;;;;4593070;19;20421;-30
2023/03/27 05:58:13;;;;;;;8.47;5.53;;;12.30;98.60;;;;;;4593314;19;20014;-30
2023/03/27 05:59:44;;;;;;;7.43;3.72;;;12.40;98.40;;;;;;4592967;19;20476;-30
2023/03/27 06:01:15;;;;;;;7.95;3.50;;;12.50;98.30;;;;;;4592712;19;20014;-33
2023/03/27 06:02:48;;;;;;;7.67;4.20;;;12.50;98.50;;;;;;4593225;19;20463;-30
2023/03/27 06:04:29;;;;;;;11.10;4.47;;;12.40;98.50;;;;;;4591822;19;20448;-30
2023/03/27 06:06:11;;;;;;;9.90;5.07;;;12.30;98.30;;;;;;4590674;19;20503;-29
2023/03/27 06:07:42;;;;;;;10.98;4.88;;;12.20;98.10;;;;;;4592623;19;21008;-32
2023/03/27 06:09:15;;;;;;;10.03;4.30;;;12.20;98.10;;;;;;4593250;19;20006;-29
2023/03/27 06:10:47;;;;;;;10.03;3.70;;;12.20;98.00;;;;;;4592229;19;20425;-29
2023/03/27 06:12:20;;;;;;;7.07;3.60;;;12.10;98.20;;;;;;4592477;19;21081;-29
2023/03/27 06:13:51;;;;;;;9.20;4.03;;;12.20;98.10;;;;;;4593190;19;20481;-30
2023/03/27 06:15:23;;;;;;;8.27;4.68;;;12.10;98.20;;;;;;4591874;19;20050;-29
2023/03/27 06:16:56;;;;;;;8.10;3.43;;;12.10;98.10;;;;;;4592099;19;20066;-31
2023/03/27 06:18:27;;;;;;;9.00;4.47;;;12.10;98.20;;;;;;4591447;19;20420;-30
2023/03/27 06:19:58;;;;;;;5.53;3.25;;;12.10;98.20;;;;;;4591640;19;20010;-30
2023/03/27 06:21:30;;;;;;;6.17;3.60;;;12.10;98.00;;;;;;4592335;19;20476;-32
2023/03/27 06:23:02;;;;;;;5.72;2.60;;;12.20;98.10;;;;;;4590676;19;20449;-29
2023/03/27 06:24:34;;;;;;;6.50;2.70;;;12.20;98.10;;;;;;4592331;19;20014;-29
2023/03/27 06:26:06;;;;;;;8.00;2.80;;;12.30;98.00;;;;;;4591556;19;20472;-29
2023/03/27 06:27:42;;;;;;;5.37;2.97;;;12.40;98.00;;;;;;4592224;19;20492;-31
2023/03/27 06:29:13;;;;;;;4.80;2.70;;;12.40;98.10;;;;;;4590806;19;20436;-30
2023/03/27 06:30:46;;;;;;;6.27;2.90;;;12.40;97.80;;;;;;4591761;19;20448;-32
2023/03/27 06:32:18;;;;;;;9.13;3.40;;;12.40;97.90;;;;;;4591977;19;20807;-30
2023/03/27 06:33:50;;;;;;;6.43;3.00;;;12.50;97.70;;;;;;4592167;19;20423;-30
2023/03/27 06:35:22;;;;;;;6.82;3.35;;;12.50;98.00;;;;;;4591965;19;20429;-30
2023/03/27 06:36:55;;;;;;;8.07;3.17;;;12.50;97.80;;;;;;4590831;19;20042;-29
2023/03/27 06:38:30;;;;;;;6.80;2.90;;;12.50;98.10;;;;;;4591319;19;20436;-29
2023/03/27 06:40:08;;;;;;;11.43;6.40;;;12.50;97.90;;;;;;4592202;19;20417;-33
2023/03/27 06:41:39;;;;;;;9.60;5.00;;;12.50;97.50;;;;;;4591798;19;20431;-29
2023/03/27 06:43:10;;;;;;;8.93;4.82;;;12.50;97.60;;;;;;4591708;19;20421;-31
2023/03/27 06:44:41;;;;;;;10.45;5.22;;;12.40;97.70;;;;;;4593309;19;20022;-29
2023/03/27 06:46:14;;;;;;;8.57;4.03;;;12.50;97.60;;;;;;4590270;19;20010;-29
2023/03/27 06:47:57;;;;;;;5.30;3.33;;;12.50;97.60;;;;;;4591903;19;20453;-30
2023/03/27 06:49:28;;;;;;;6.77;3.30;;;12.40;97.70;;;;;;4590437;19;20460;-35
2023/03/27 06:50:59;;;;;;;6.35;2.55;;;12.30;97.50;;;;;;4591845;19;20433;-31
2023/03/27 06:52:31;;;;;;;6.63;3.40;;;12.20;97.60;;;;;;4591295;19;20018;-29
2023/03/27 06:54:03;;;;;;;6.82;3.47;;;12.20;98.10;;;;;;4590724;19;20453;-30
2023/03/27 06:55:36;;;;;;;5.60;2.40;;;12.10;97.80;;;;;;4591694;19;20018;-29
2023/03/27 06:57:07;;;;;;;4.85;2.53;;;12.00;97.70;;;;;;4594361;19;20598;-31
2023/03/27 06:58:38;;;;;;;6.18;2.67;;;12.00;97.90;;;;;;4591634;19;20495;-30
2023/03/27 07:00:17;;;;;;;5.50;2.33;;;12.00;98.00;;;;;;4590205;19;20062;-29
2023/03/27 07:01:51;;;;;;;3.70;1.93;;;12.00;98.00;;;;;;4589843;19;20464;-30
2023/03/27 07:03:22;;;;;;;3.90;2.10;;;12.00;98.10;;;;;;4591450;19;20441;-29
2023/03/27 07:04:54;;;;;;;7.53;2.63;;;12.00;98.10;;;;;;4590847;19;20475;-31
2023/03/27 07:06:26;;;;;;;5.07;2.27;;;12.00;98.00;;;;;;4587981;19;20493;-30
2023/03/27 07:07:58;;;;;;;3.38;1.70;;;12.00;98.00;;;;;;4590225;19;20476;-31
2023/03/27 07:09:30;;;;;;;4.50;2.53;;;11.90;97.90;;;;;;4592064;19;20018;-29
2023/03/27 07:11:02;;;;;;;11.77;9.77;;;11.90;98.00;;;;;;4592979;19;20476;-30
2023/03/27 07:12:34;;;;;;;8.67;6.33;;;12.10;98.10;;;;;;4591538;19;20011;-29
2023/03/27 07:14:05;;;;;;;4.20;2.63;;;12.10;98.50;;;;;;4590655;19;20768;-33
2023/03/27 07:15:36;;;;;;;5.07;3.00;;;12.00;98.20;;;;;;4588996;19;20035;-32
2023/03/27 07:17:09;;;;;;;7.23;4.17;;;12.10;98.10;;;;;;4592038;19;20102;-32
2023/03/27 07:18:42;;;;;;;7.60;4.83;;;12.10;98.40;;;;;;4591157;19;20468;-31
2023/03/27 07:20:13;;;;;;;6.50;4.45;;;12.00;98.30;;;;;;4592656;19;20472;-34
2023/03/27 07:21:44;;;;;;;9.90;5.18;;;12.00;98.10;;;;;;4590801;19;20025;-31
2023/03/27 07:23:16;;;;;;;10.60;5.23;;;12.00;98.10;;;;;;4591531;19;20500;-35
2023/03/27 07:24:50;;;;;;;7.97;3.30;;;12.00;98.10;;;;;;4588651;19;21041;-34
2023/03/27 07:26:22;;;;;;;5.33;2.90;;;12.00;98.00;;;;;;4589377;19;20449;-31
2023/03/27 07:28:00;;;;;;;4.95;2.35;;;11.90;97.90;;;;;;4589620;19;20488;-31
2023/03/27 07:29:33;;;;;;;5.43;3.53;;;11.70;97.60;;;;;;4588643;19;20042;-33
2023/03/27 07:31:08;;;;;;;6.27;3.10;;;11.70;97.90;;;;;;4590491;19;20487;-34
2023/03/27 07:32:40;;;;;;;5.93;3.23;;;11.70;98.00;;;;;;4589519;19;20565;-33
2023/03/27 07:34:11;;;;;;;5.30;2.83;;;11.70;97.90;;;;;;4590242;19;20452;-31
2023/03/27 07:35:44;;;;;;;5.07;2.30;;;11.70;98.20;;;;;;4588885;19;20445;-31
2023/03/27 09:34:55;;;;;;;5.27;3.63;;;11.50;94.80;;;;;;4587890;19;20484;-31
2023/03/27 09:36:27;;;;;;;6.53;3.23;;;11.50;94.90;;;;;;4591544;19;20854;-31
2023/03/27 09:38:05;;;;;;;3.90;2.07;;;11.50;94.70;;;;;;4594094;19;20548;-31
2023/03/27 09:39:39;;;;;;;4.50;1.90;;;11.60;94.80;;;;;;4594974;19;20499;-31
2023/03/27 09:41:12;;;;;;;5.87;2.60;;;11.50;94.80;;;;;;4592207;19;20491;-30
2023/03/27 09:42:44;;;;;;;5.50;2.63;;;11.60;95.10;;;;;;4592642;19;20495;-30
2023/03/27 09:44:24;;;;;;;4.25;2.22;;;11.60;95.00;;;;;;4594675;19;20421;-31
2023/03/27 09:45:56;;;;;;;4.18;2.42;;;11.70;95.30;;;;;;4592932;19;20019;-32
2023/03/27 09:47:33;;;;;;;3.20;2.00;;;11.60;95.20;;;;;;4593882;19;20014;-31
2023/03/27 09:49:19;;;;;;;3.43;1.50;;;11.60;95.40;;;;;;4592690;19;20472;-31
2023/03/27 09:50:51;;;;;;;2.83;1.67;;;11.40;95.00;;;;;;4592947;19;21040;-30
2023/03/27 09:52:38;;;;;;;2.72;1.80;;;11.40;95.20;;;;;;4593536;19;20567;-32
2023/03/27 09:54:28;;;;;;;3.87;1.77;;;11.50;95.40;;;;;;4595007;19;20017;-31
2023/03/27 09:56:04;;;;;;;2.67;1.35;;;11.60;95.20;;;;;;4592659;19;20456;-31
2023/03/27 09:57:36;;;;;;;4.33;2.40;;;11.30;94.60;;;;;;4592837;19;20026;-32
2023/03/27 09:59:27;;;;;;;4.07;1.98;;;11.30;95.20;;;;;;4591678;19;20807;-31
2023/03/27 10:01:33;;;;;;;1.63;1.15;;;11.40;95.30;;;;;;4592406;19;20015;-31
2023/03/27 10:03:16;;;;;;;1.77;1.07;;;11.50;95.00;;;;;;4592322;19;20015;-32
2023/03/27 10:05:16;;;;;;;2.43;1.43;;;11.50;95.00;;;;;;4592597;19;20413;-30
2023/03/27 10:06:57;;;;;;;3.00;1.23;;;11.50;94.90;;;;;;4592207;19;20485;-32
2023/03/27 10:08:31;;;;;;;;;;;11.40;94.90;;;;;;4593260;19;20451;-31